createdAt,value
2022-12-13T00:01:13.424Z,7.73
2022-12-13T00:05:57.120Z,6.37
2022-12-13T00:10:40.797Z,7.47
2022-12-13T00:15:24.299Z,7.90
2022-12-13T00:20:10.132Z,6.57
2022-12-13T00:24:57.005Z,7.47
2022-12-13T00:29:40.556Z,8.40
2022-12-13T00:34:24.259Z,7.87
2022-12-13T00:39:13.050Z,7.17
2022-12-13T00:43:56.595Z,6.40
2022-12-13T00:48:40.484Z,6.07
2022-12-13T00:53:23.967Z,6.13
2022-12-13T00:58:08.848Z,6.40
2022-12-13T01:02:53.921Z,6.83
2022-12-13T01:07:38.339Z,7.53
2022-12-13T01:12:21.902Z,7.90
2022-12-13T01:17:07.578Z,6.93
2022-12-13T01:21:55.644Z,5.60
2022-12-13T01:26:39.952Z,7.00
2022-12-13T01:31:23.429Z,6.60
2022-12-13T01:36:10.838Z,6.90
2022-12-13T01:40:58.746Z,6.40
2022-12-13T01:45:43.344Z,4.83
2022-12-13T01:50:30.100Z,6.27
2022-12-13T01:55:17.898Z,6.80
2022-12-13T02:00:03.581Z,7.27
2022-12-13T02:04:54.630Z,6.77
2022-12-13T02:09:38.692Z,7.40
2022-12-13T02:14:23.509Z,6.73
2022-12-13T02:19:49.344Z,6.17
2022-12-13T02:24:58.640Z,5.83
2022-12-13T02:30:19.738Z,6.07
2022-12-13T02:35:11.629Z,6.30
2022-12-13T02:39:59.949Z,5.93
2022-12-13T02:44:48.158Z,5.30
2022-12-13T02:49:36.500Z,5.83
2022-12-13T02:54:21.379Z,5.83
2022-12-13T02:59:10.260Z,5.40
2022-12-13T03:04:01.952Z,5.70
2022-12-13T03:08:51.846Z,6.60
2022-12-13T03:13:47.855Z,6.80
2022-12-13T03:18:33.385Z,5.63
2022-12-13T03:23:17.768Z,5.63
2022-12-13T03:28:02.398Z,7.07
2022-12-13T03:32:47.651Z,5.83
2022-12-13T03:37:31.315Z,5.77
2022-12-13T03:42:14.794Z,4.97
2022-12-13T03:46:58.235Z,5.03
2022-12-13T03:51:45.655Z,4.23
2022-12-13T03:56:29.426Z,5.17
2022-12-13T04:01:15.466Z,5.30
2022-12-13T04:05:58.885Z,5.53
2022-12-13T04:10:44.203Z,4.53
2022-12-13T04:15:27.636Z,5.73
2022-12-13T04:20:12.122Z,4.70
2022-12-13T04:24:55.563Z,4.77
2022-12-13T04:29:40.428Z,5.80
2022-12-13T04:34:26.415Z,6.73
2022-12-13T04:39:22.352Z,5.70
2022-12-13T04:44:28.155Z,5.70
2022-12-13T04:49:12.950Z,5.53
2022-12-13T04:53:56.477Z,5.70
2022-12-13T04:58:59.918Z,5.10
2022-12-13T05:03:43.315Z,5.80
2022-12-13T05:08:28.685Z,5.97
2022-12-13T05:13:12.186Z,6.33
2022-12-13T05:17:56.173Z,5.57
2022-12-13T05:22:39.730Z,6.07
2022-12-13T05:27:26.785Z,6.20
2022-12-13T05:32:11.010Z,5.40
2022-12-13T05:36:54.486Z,6.33
2022-12-13T05:41:38.871Z,5.93
2022-12-13T05:46:23.804Z,6.50
2022-12-13T05:51:10.785Z,5.40
2022-12-13T05:55:55.180Z,6.30
2022-12-13T06:00:39.021Z,6.60
2022-12-13T06:05:24.608Z,5.83
2022-12-13T06:10:10.940Z,6.30
2022-12-13T06:14:54.652Z,5.60
2022-12-13T06:19:46.835Z,6.70
2022-12-13T06:24:31.713Z,6.83
2022-12-13T06:29:24.567Z,6.63
2022-12-13T06:34:14.795Z,6.87
2022-12-13T06:39:03.011Z,6.90
2022-12-13T06:43:49.510Z,6.80
2022-12-13T06:48:33.426Z,7.70
2022-12-13T06:53:16.893Z,7.83
2022-12-13T06:58:00.415Z,7.63
2022-12-13T07:02:45.771Z,6.90
2022-12-13T07:07:29.961Z,7.73
2022-12-13T07:12:13.560Z,8.20
2022-12-13T07:17:03.359Z,8.97
2022-12-13T07:21:50.453Z,8.03
2022-12-13T07:26:34.041Z,8.90
2022-12-13T07:31:19.358Z,8.83
2022-12-13T07:36:03.557Z,9.37
2022-12-13T07:40:48.493Z,8.57
2022-12-13T07:45:32.189Z,9.13
2022-12-13T07:50:24.957Z,8.97
2022-12-13T07:55:10.753Z,10.43
2022-12-13T07:59:55.631Z,9.83
2022-12-13T08:04:39.175Z,9.13
2022-12-13T08:09:23.479Z,9.80
2022-12-13T08:14:07.504Z,9.80
2022-12-13T08:18:52.385Z,8.33
2022-12-13T08:23:46.875Z,9.77
2022-12-13T08:28:32.077Z,8.77
2022-12-13T08:33:15.565Z,10.03
2022-12-13T08:38:01.107Z,11.20
2022-12-13T08:42:44.844Z,11.70
2022-12-13T08:47:28.836Z,11.00
2022-12-13T08:52:12.475Z,12.97
2022-12-13T08:56:57.413Z,10.73
2022-12-13T09:01:40.863Z,10.97
2022-12-13T09:06:24.385Z,12.03
2022-12-13T09:11:11.293Z,11.90
2022-12-13T09:16:23.719Z,11.93
2022-12-13T09:21:10.915Z,11.23
2022-12-13T09:26:05.954Z,9.70
2022-12-13T09:30:50.266Z,11.73
2022-12-13T09:35:35.439Z,10.60
2022-12-13T09:40:26.002Z,11.07
2022-12-13T09:45:21.939Z,9.73
2022-12-13T09:50:15.363Z,7.50
2022-12-13T09:55:00.740Z,6.67
2022-12-13T09:59:44.461Z,6.37
2022-12-13T10:04:30.723Z,6.37
2022-12-13T10:09:15.814Z,6.23
2022-12-13T10:14:03.925Z,6.23
2022-12-13T10:18:47.450Z,6.27
2022-12-13T10:23:42.674Z,6.43
2022-12-13T10:28:35.378Z,6.37
2022-12-13T10:33:26.686Z,7.07
2022-12-13T10:38:31.707Z,6.47
2022-12-13T10:43:18.764Z,5.93
2022-12-13T10:48:04.466Z,5.53
2022-12-13T10:52:50.051Z,5.80
2022-12-13T10:57:34.429Z,5.73
2022-12-13T11:02:35.454Z,5.60
2022-12-13T11:07:27.218Z,5.30
2022-12-13T11:12:21.840Z,5.73
2022-12-13T11:17:11.715Z,5.23
2022-12-13T11:21:59.457Z,5.50
2022-12-13T11:26:53.986Z,5.80
2022-12-13T11:31:47.731Z,5.10
2022-12-13T11:36:43.228Z,5.93
2022-12-13T11:41:32.709Z,5.90
2022-12-13T11:46:21.977Z,6.70
2022-12-13T11:51:10.132Z,5.23
2022-12-13T11:56:00.354Z,5.20
2022-12-13T12:00:48.974Z,4.87
2022-12-13T12:05:38.270Z,5.60
2022-12-13T12:10:30.611Z,5.60
2022-12-13T12:15:26.728Z,5.73
2022-12-13T12:20:23.853Z,5.13
2022-12-13T12:25:29.307Z,6.03
2022-12-13T12:30:23.267Z,5.20
2022-12-13T12:35:27.434Z,5.47
2022-12-13T12:41:07.301Z,5.33
2022-12-13T12:45:57.316Z,5.13
2022-12-13T12:50:48.759Z,5.30
2022-12-13T12:55:46.047Z,5.27
2022-12-13T13:00:37.615Z,7.00
2022-12-13T13:05:26.900Z,5.57
2022-12-13T13:10:16.484Z,6.13
2022-12-13T13:15:47.001Z,5.93
2022-12-13T13:20:31.975Z,5.50
2022-12-13T13:25:23.535Z,6.53
2022-12-13T13:30:11.207Z,7.70
2022-12-13T13:34:54.718Z,6.50
2022-12-13T13:40:03.417Z,6.97
2022-12-13T13:45:19.555Z,7.57
2022-12-13T13:50:18.025Z,8.07
2022-12-13T13:55:38.877Z,8.67
2022-12-13T14:00:24.055Z,8.77
2022-12-13T14:05:47.931Z,8.60
2022-12-13T14:10:48.014Z,7.93
2022-12-13T14:16:12.197Z,8.27
2022-12-13T14:21:15.296Z,7.40
2022-12-13T14:26:20.891Z,8.30
2022-12-13T14:31:04.450Z,7.63
2022-12-13T14:35:53.679Z,7.00
2022-12-13T14:40:48.464Z,8.00
2022-12-13T14:45:36.870Z,7.40
2022-12-13T14:50:21.146Z,8.00
2022-12-13T14:55:06.272Z,7.87
2022-12-13T14:59:52.361Z,7.90
2022-12-13T15:04:38.079Z,8.80
2022-12-13T15:09:22.727Z,8.07
2022-12-13T15:14:12.775Z,7.70
2022-12-13T15:19:10.988Z,7.87
2022-12-13T15:23:57.229Z,8.17
2022-12-13T15:28:45.053Z,7.87
2022-12-13T15:33:34.413Z,8.23
2022-12-13T15:38:28.786Z,8.43
2022-12-13T15:43:19.756Z,8.67
2022-12-13T15:48:03.327Z,8.67
2022-12-13T15:52:47.928Z,8.67
2022-12-13T15:57:33.294Z,9.53
2022-12-13T16:02:21.843Z,9.17
2022-12-13T16:07:05.483Z,9.67
2022-12-13T16:11:53.138Z,9.03
2022-12-13T16:16:37.039Z,9.30
2022-12-13T16:21:22.141Z,9.73
2022-12-13T16:26:09.175Z,8.97
2022-12-13T16:31:05.616Z,8.93
2022-12-13T16:35:49.346Z,9.87
2022-12-13T16:40:35.017Z,9.13
2022-12-13T16:45:41.091Z,9.10
2022-12-13T16:50:26.726Z,8.87
2022-12-13T16:55:11.814Z,9.70
2022-12-13T16:59:57.489Z,9.30
2022-12-13T17:04:43.221Z,8.97
2022-12-13T17:09:32.484Z,8.87
2022-12-13T17:14:17.418Z,9.27
2022-12-13T17:19:06.481Z,9.03
2022-12-13T17:23:50.721Z,9.43
2022-12-13T17:28:37.324Z,8.73
2022-12-13T17:33:23.006Z,9.70
2022-12-13T17:38:10.241Z,9.23
2022-12-13T17:42:55.881Z,9.30
2022-12-13T17:47:40.239Z,11.27
2022-12-13T17:52:24.277Z,9.83
2022-12-13T17:57:12.089Z,10.93
2022-12-13T18:01:56.051Z,9.83
2022-12-13T18:06:41.131Z,10.03
2022-12-13T18:11:34.146Z,10.40
2022-12-13T18:16:22.254Z,10.67
2022-12-13T18:21:11.680Z,8.87
2022-12-13T18:26:01.619Z,9.40
2022-12-13T18:30:47.211Z,10.00
2022-12-13T18:35:33.750Z,9.27
2022-12-13T18:40:20.685Z,10.23
2022-12-13T18:45:09.664Z,10.63
2022-12-13T18:49:55.484Z,10.17
2022-12-13T18:54:44.080Z,11.70
2022-12-13T18:59:40.242Z,11.00
2022-12-13T19:04:30.843Z,10.30
2022-12-13T19:09:17.522Z,12.30
2022-12-13T19:14:05.558Z,13.60
2022-12-13T19:18:52.630Z,14.27
2022-12-13T19:23:40.634Z,14.77
2022-12-13T19:28:28.580Z,13.53
2022-12-13T19:33:15.846Z,11.57
2022-12-13T19:38:02.352Z,12.07
2022-12-13T19:42:48.135Z,12.27
2022-12-13T19:47:33.528Z,12.40
2022-12-13T19:52:28.513Z,13.23
2022-12-13T19:57:15.238Z,11.93
2022-12-13T20:02:00.955Z,12.60
2022-12-13T20:06:47.160Z,12.73
2022-12-13T20:11:34.501Z,12.40
2022-12-13T20:16:21.182Z,12.33
2022-12-13T20:21:12.493Z,12.93
2022-12-13T20:26:03.187Z,13.40
2022-12-13T20:30:51.697Z,13.70
2022-12-13T20:35:49.595Z,13.33
2022-12-13T20:40:41.907Z,13.90
2022-12-13T20:45:27.761Z,13.43
2022-12-13T20:50:16.814Z,13.40
2022-12-13T20:55:02.612Z,13.30
2022-12-13T20:59:48.717Z,12.73
2022-12-13T21:04:34.424Z,12.67
2022-12-13T21:09:21.313Z,12.27
2022-12-13T21:14:11.248Z,12.30
2022-12-13T21:19:01.702Z,13.67
2022-12-13T21:23:46.316Z,12.63
2022-12-13T21:28:32.344Z,12.90
2022-12-13T21:33:17.156Z,12.77
2022-12-13T21:38:05.328Z,12.57
2022-12-13T21:42:50.662Z,13.27
2022-12-13T21:47:36.215Z,13.33
2022-12-13T21:52:20.510Z,12.73
2022-12-13T21:57:23.518Z,13.03
2022-12-13T22:02:13.662Z,12.50
2022-12-13T22:06:58.813Z,12.57
2022-12-13T22:11:42.319Z,13.37
2022-12-13T22:16:25.824Z,12.40
2022-12-13T22:21:10.334Z,13.73
2022-12-13T22:25:55.963Z,13.87
2022-12-13T22:30:40.964Z,13.67
2022-12-13T22:35:24.509Z,14.53
2022-12-13T22:40:09.051Z,13.70
2022-12-13T22:44:54.080Z,14.33
2022-12-13T22:49:37.578Z,13.73
2022-12-13T22:54:21.439Z,13.93
2022-12-13T22:59:08.891Z,14.90
2022-12-13T23:03:55.200Z,13.67
2022-12-13T23:08:43.399Z,13.80
2022-12-13T23:13:27.865Z,13.37
2022-12-13T23:18:11.347Z,14.73
2022-12-13T23:22:56.286Z,13.33
2022-12-13T23:27:40.183Z,14.00
2022-12-13T23:32:23.609Z,14.47
2022-12-13T23:37:09.531Z,13.97
2022-12-13T23:41:54.441Z,14.43
2022-12-13T23:46:38.556Z,13.27
2022-12-13T23:51:22.373Z,13.30
2022-12-13T23:56:07.405Z,13.57
